Flight Track Log - Related Links

Times and Time Zones

All times are in EDT time to prevent confusion due to time zone crossing. See the UAL5847 flight status page for this flight to view local times or setup timezone preferences in your user account.

Time Position Orientation Groundspeed Altitude Reporting Facility
EDT Latitude Longitude Course Direction KTS MPH feet Rate Location/Type
Wed 06:16:35 PM 41.9667 -87.8333 346° North 200 230 3,100  Level Chicago TRACON
Wed 06:17:29 PM 42.0000 -87.7500 62° Northeast 268 308 4,600 2,087 Climbing Chicago TRACON
Wed 06:19:00 PM 42.2505 -88.3272 346° North  Level Estimated
Wed 06:19:16 PM 42.1083 -87.7547 358° North 277 319 8,700  Level Chicago Center
Wed 06:20:00 PM 42.3508 -88.2962 13° North  Level FlightAware Approximate
Wed 06:20:18 PM 42.1892 -87.7642 355° North 297 342 10,400  Level Chicago Center
Wed 06:21:00 PM 42.4169 -88.4031 346° North  Level Estimated
Wed 06:21:20 PM 42.2931 -87.7683 358° North 311 358 12,900  Level Chicago Center
Wed 06:22:22 PM 42.3719 -87.7922 347° North 325 374 14,400 1,355 Climbing Chicago Center
Wed 06:23:24 PM 42.4556 -87.8461 335° Northwest 329 379 15,700 1,161 Climbing Chicago Center
Wed 06:24:26 PM 42.5583 -87.9267 330° Northwest 355 409 16,800 912 Climbing Chicago Center
Wed 06:25:29 PM 42.6206 -88.0436 306° West 375 432 17,600 720 Climbing Chicago Center
Wed 06:26:31 PM 42.6858 -88.1578 308° West 380 437 18,300 774 Climbing Chicago Center
Wed 06:27:33 PM 42.7519 -88.2767 307° West 389 448 19,200 871 Climbing Chicago Center
Wed 06:28:35 PM 42.8200 -88.4006 307° West 400 460 20,100 1,016 Climbing Chicago Center
Wed 06:29:37 PM 42.8883 -88.5281 306° West 410 472 21,300 1,306 Climbing Chicago Center
Wed 06:30:39 PM 42.9703 -88.6775 307° West 408 470 22,800 1,355 Climbing Chicago Center
Wed 06:31:41 PM 43.0378 -88.8028 306° West 408 470 24,100 1,210 Climbing Chicago Center
Wed 06:32:43 PM 43.1039 -88.9261 306° West 401 461 25,300 1,210 Climbing Chicago Center
Wed 06:33:45 PM 43.1714 -89.0500 307° West 403 464 26,600 1,161 Climbing Chicago Center
Wed 06:34:47 PM 43.2364 -89.1706 307° West 396 456 27,700 1,016 Climbing Chicago Center
Wed 06:35:49 PM 43.3019 -89.2928 306° West 397 457 28,700 1,038 Climbing Chicago Center
Wed 06:37:23 PM 43.4056 -89.4875 306° West 394 453 30,400 1,104 Climbing Minneapolis Center
Wed 06:37:54 PM 43.4444 -89.5608 306° West 394 453 31,000 1,097 Climbing Chicago Center
Wed 06:38:56 PM 43.5083 -89.6844 306° West 395 455 32,100 1,016 Climbing Chicago Center
Wed 06:39:58 PM 43.5631 -89.8189 299° West 403 464 33,100 1,016 Climbing Chicago Center
Wed 06:41:00 PM 43.5942 -89.9619 287° West 394 453 34,200 1,016 Climbing Chicago Center
Wed 06:42:02 PM 43.6247 -90.1056 286° West 390 449 35,200 871 Climbing Chicago Center
Wed 06:43:04 PM 43.6550 -90.2478 286° West 389 448 36,000 387 Climbing Chicago Center
Wed 06:44:06 PM 43.6903 -90.4069 287° West 396 456 36,000  Level Chicago Center
Wed 06:45:08 PM 43.7444 -90.5483 298° West 422 486 36,000  Level Chicago Center
Wed 06:46:10 PM 43.8308 -90.7033 308° West 429 494 36,000  Level Chicago Center
Wed 06:46:42 PM 43.8611 -90.7536 310° West 432 497 36,000  Level Minneapolis Center
Wed 06:47:44 PM 43.9333 -90.8822 308° West 429 494 36,000  Level Minneapolis Center
Wed 06:48:46 PM 44.0206 -91.0378 308° West 431 496 36,000  Level Minneapolis Center
Wed 06:49:48 PM 44.0914 -91.1672 307° West 429 494 36,000  Level Minneapolis Center
Wed 06:50:50 PM 44.1694 -91.3089 308° West 430 495 36,000  Level Minneapolis Center
Wed 06:51:52 PM 44.2417 -91.4392 308° West 427 491 36,000  Level Minneapolis Center
Wed 06:52:54 PM 44.3133 -91.5714 307° West 428 493 36,000  Level Minneapolis Center
Wed 06:53:56 PM 44.3836 -91.7056 306° West 429 494 36,000  Level Minneapolis Center
Wed 06:54:59 PM 44.4553 -91.8358 308° West 426 490 36,000  Level Minneapolis Center
Wed 06:56:01 PM 44.5408 -91.9936 307° West 424 488 36,000  Level Minneapolis Center
Wed 06:57:03 PM 44.6111 -92.1261 307° West 424 488 36,000  Level Minneapolis Center
Wed 06:58:05 PM 44.6836 -92.2581 308° West 426 490 36,000  Level Minneapolis Center
Wed 06:59:07 PM 44.7536 -92.3925 306° West 428 493 36,000  Level Minneapolis Center
Wed 07:00:09 PM 44.8222 -92.5217 307° West 420 483 36,000  Level Minneapolis Center
Wed 07:01:11 PM 44.9008 -92.6742 306° West 405 466 36,000  Level Minneapolis Center
Wed 07:02:13 PM 44.9706 -92.8036 307° West 415 478 36,000  Level Minneapolis Center
Wed 07:03:15 PM 45.0397 -92.9375 306° West 423 487 36,000  Level Minneapolis Center
Wed 07:04:17 PM 45.1083 -93.0686 307° West 422 486 36,000  Level Minneapolis Center
Wed 07:05:19 PM 45.1744 -93.2000 306° West 416 479 36,000  Level Minneapolis Center
Wed 07:06:21 PM 45.2561 -93.3581 306° West 418 481 36,000  Level Minneapolis Center
Wed 07:07:23 PM 45.3242 -93.4917 306° West 420 483 36,000  Level Minneapolis Center
Wed 07:08:25 PM 45.3919 -93.6250 306° West 418 481 36,000  Level Minneapolis Center
Wed 07:09:28 PM 45.4589 -93.7583 306° West 417 480 36,000  Level Minneapolis Center
Wed 07:10:30 PM 45.5272 -93.8925 306° West 419 482 36,000  Level Minneapolis Center
Wed 07:11:32 PM 45.6083 -94.0544 306° West 420 483 36,000  Level Minneapolis Center
Wed 07:12:34 PM 45.6747 -94.1892 305° West 418 481 36,000  Level Minneapolis Center
Wed 07:13:36 PM 45.7406 -94.3233 305° West 415 478 36,000  Level Minneapolis Center
Wed 07:14:38 PM 45.8067 -94.4547 306° West 411 473 36,000  Level Minneapolis Center
Wed 07:15:40 PM 45.8711 -94.5881 305° West 409 471 36,000 -97 Level Minneapolis Center
Wed 07:16:42 PM 45.9358 -94.7194 305° West 408 470 35,800 -774 Descending Minneapolis Center
Wed 07:17:44 PM 46.0125 -94.8786 305° West 405 466 34,400 -1,210 Descending Minneapolis Center
Wed 07:18:46 PM 46.0756 -95.0081 305° West 398 458 33,300 -1,161 Descending Minneapolis Center
Wed 07:19:48 PM 46.1414 -95.1467 304° West 400 460 32,000 -1,548 Descending Minneapolis Center
Wed 07:20:50 PM 46.2075 -95.2881 304° West 414 476 30,100 -2,032 Descending Minneapolis Center
Wed 07:21:52 PM 46.2739 -95.4294 304° West 422 486 27,800 -2,400 Descending Minneapolis Center
Wed 07:22:55 PM 46.3369 -95.5608 305° West 413 475 25,100 -3,024 Descending Minneapolis Center
Wed 07:23:57 PM 46.4144 -95.7278 304° West 417 480 21,500 -3,242 Descending Minneapolis Center
Wed 07:24:59 PM 46.4800 -95.8636 305° West 413 475 18,400 -3,048 Descending Minneapolis Center
Wed 07:26:01 PM 46.5422 -95.9961 304° West 384 442 15,200 -2,855 Descending Minneapolis Center
Wed 07:27:03 PM 46.5964 -96.1114 304° West 360 414 12,500 -2,177 Descending Minneapolis Center
Wed 07:28:05 PM 46.6381 -96.2364 296° West 325 374 10,700 -1,790 Descending Minneapolis Center
Wed 07:29:07 PM 46.6597 -96.3511 285° West 284 327 8,800 -1,935 Descending Minneapolis Center
Wed 07:30:09 PM 46.6722 -96.4675 279° West 281 323 6,700 -1,887 Descending Minneapolis Center
Wed 07:31:11 PM 46.7058 -96.5711 295° West 280 322 4,900 -1,645 Descending Minneapolis Center
Wed 07:32:13 PM 46.7492 -96.6678 303° West 273 314 3,300 -968 Descending Minneapolis Center
Wed 07:33:15 PM 46.7831 -96.7519 300° West 251 289 2,900 -339 Descending Minneapolis Center
Wed 07:34:17 PM 46.8231 -96.8103 315° West 189 217 2,600 -581 Descending Minneapolis Center
Wed 07:35:19 PM 46.8650 -96.8172 354° North 142 163 1,700 -871 Descending Minneapolis Center

Login

Don't have an account? Register now (free) for customized features, flight alerts, and more!